createdAt,value
2018-04-07T00:03:04.719Z,101173.48
2018-04-07T00:08:06.043Z,101165.61
2018-04-07T00:13:07.343Z,101173.70
2018-04-07T00:18:09.398Z,101182.30
2018-04-07T00:23:10.703Z,101184.28
2018-04-07T00:28:12.035Z,101182.91
2018-04-07T00:33:14.107Z,101174.83
2018-04-07T00:38:15.399Z,101171.56
2018-04-07T00:43:16.723Z,101168.94
2018-04-07T00:48:18.763Z,101169.58
2018-04-07T00:53:20.067Z,101173.56
2018-04-07T00:58:21.396Z,101168.50
2018-04-07T01:03:22.836Z,101155.29
2018-04-07T01:08:24.326Z,101153.11
2018-04-07T01:13:25.766Z,101149.03
2018-04-07T01:18:27.259Z,101140.70
2018-04-07T01:23:28.599Z,101125.14
2018-04-07T01:28:29.901Z,101124.87
2018-04-07T01:33:31.251Z,101112.53
2018-04-07T01:38:33.288Z,101104.41
2018-04-07T01:43:34.586Z,101102.93
2018-04-07T01:48:35.875Z,101092.93
2018-04-07T01:53:37.200Z,101096.31
2018-04-07T01:58:38.512Z,101092.09
2018-04-07T02:03:40.550Z,101096.97
2018-04-07T02:08:41.876Z,101089.02
2018-04-07T02:13:43.183Z,101095.54
2018-04-07T02:18:45.239Z,101099.61
2018-04-07T02:23:46.538Z,101093.12
2018-04-07T02:28:47.853Z,101091.05
2018-04-07T02:33:49.195Z,101096.20
2018-04-07T02:38:50.478Z,101100.98
2018-04-07T02:43:51.836Z,101099.00
2018-04-07T02:48:53.122Z,101097.75
2018-04-07T02:53:55.151Z,101095.42
2018-04-07T02:58:56.473Z,101097.72
2018-04-07T03:03:57.777Z,101083.09
2018-04-07T03:08:59.092Z,101077.77
2018-04-07T03:14:01.155Z,101073.86
2018-04-07T03:19:02.492Z,101080.37
2018-04-07T03:24:04.570Z,101073.56
2018-04-07T03:29:05.900Z,101068.92
2018-04-07T03:34:07.959Z,101080.84
2018-04-07T03:39:09.259Z,101080.53
2018-04-07T03:44:10.560Z,101080.44
2018-04-07T03:49:11.875Z,101066.94
2018-04-07T03:54:13.942Z,101063.94
2018-04-07T03:59:15.263Z,101060.55
2018-04-07T04:04:17.339Z,101056.63
2018-04-07T04:09:18.642Z,101051.11
2018-04-07T04:14:19.955Z,101048.48
2018-04-07T04:19:22.004Z,101051.59
2018-04-07T04:24:23.302Z,101049.89
2018-04-07T04:29:24.618Z,101055.41
2018-04-07T04:34:25.919Z,101051.88
2018-04-07T04:39:27.971Z,101060.05
2018-04-07T04:44:29.290Z,101052.49
2018-04-07T04:49:30.587Z,101048.91
2018-04-07T04:54:31.917Z,101040.19
2018-04-07T04:59:33.207Z,101030.57
2018-04-07T05:04:34.515Z,101019.06
2018-04-07T05:09:35.819Z,101022.66
2018-04-07T05:14:37.129Z,101016.00
2018-04-07T05:19:38.596Z,101014.09
2018-04-07T05:24:39.927Z,101007.33
2018-04-07T05:29:41.274Z,101011.39
2018-04-07T05:34:49.709Z,101020.60
2018-04-07T05:39:51.076Z,101009.56
2018-04-07T05:44:52.391Z,100999.02
2018-04-07T05:49:53.675Z,100997.87
2018-04-07T05:54:54.966Z,100994.64
2018-04-07T05:59:56.274Z,100995.80
2018-04-07T06:04:57.639Z,101007.03
2018-04-07T06:09:58.952Z,101006.30
2018-04-07T06:15:00.243Z,100999.61
2018-04-07T06:20:01.565Z,100986.44
2018-04-07T06:25:03.631Z,100970.88
2018-04-07T06:30:04.948Z,100958.48
2018-04-07T06:35:06.265Z,100952.77
2018-04-07T06:40:08.319Z,100950.69
2018-04-07T06:45:09.657Z,100966.83
2018-04-07T06:50:11.713Z,100954.17
2018-04-07T06:55:13.035Z,100949.20
2018-04-07T07:00:14.362Z,100953.31
2018-04-07T07:05:15.680Z,100941.20
2018-04-07T07:10:16.979Z,100933.34
2018-04-07T07:15:18.291Z,100935.17
2018-04-07T07:20:19.607Z,100920.75
2018-04-07T07:25:20.935Z,100927.62
2018-04-07T07:30:22.272Z,100933.63
2018-04-07T07:35:24.303Z,100944.95
2018-04-07T07:40:25.609Z,100938.55
2018-04-07T07:45:26.903Z,100936.05
2018-04-07T07:50:28.207Z,100921.09
2018-04-07T07:55:29.513Z,100925.91
2018-04-07T08:00:30.827Z,100923.57
2018-04-07T08:05:33.018Z,100929.22
2018-04-07T08:10:35.098Z,100912.23
2018-04-07T08:15:36.426Z,100916.27
2018-04-07T08:20:38.513Z,100900.97
2018-04-07T08:25:39.824Z,100902.98
2018-04-07T08:30:41.883Z,100901.59
2018-04-07T08:35:43.227Z,100897.34
2018-04-07T08:40:45.309Z,100897.83
2018-04-07T08:45:46.623Z,100897.59
2018-04-07T08:50:48.694Z,100892.53
2018-04-07T08:55:50.023Z,100890.07
2018-04-07T09:00:52.076Z,100886.84
2018-04-07T09:05:53.414Z,100876.94
2018-04-07T09:10:55.456Z,100886.20
2018-04-07T09:15:56.788Z,100892.77
2018-04-07T09:20:58.087Z,100897.64
2018-04-07T09:26:00.124Z,100893.80
2018-04-07T09:31:07.652Z,100891.23
2018-04-07T09:36:08.971Z,100892.94
2018-04-07T09:41:10.263Z,100894.20
2018-04-07T09:46:11.573Z,100882.69
2018-04-07T09:51:12.878Z,100878.25
2018-04-07T09:56:14.195Z,100884.52
2018-04-07T10:01:15.530Z,100870.95
2018-04-07T10:06:16.854Z,100873.06
2018-04-07T10:11:18.938Z,100861.22
2018-04-07T10:16:20.251Z,100860.37
2018-04-07T10:21:22.311Z,100851.74
2018-04-07T10:26:23.684Z,100849.99
2018-04-07T10:31:25.047Z,100849.75
2018-04-07T10:36:27.231Z,100840.77
2018-04-07T10:41:28.547Z,100839.22
2018-04-07T10:46:30.596Z,100836.50
2018-04-07T10:51:31.895Z,100835.02
2018-04-07T10:56:33.211Z,100833.50
2018-04-07T11:01:34.555Z,100828.39
2018-04-07T11:06:35.860Z,100829.13
2018-04-07T11:11:37.170Z,100801.73
2018-04-07T11:16:38.507Z,100808.42
2018-04-07T11:21:39.811Z,100800.93
2018-04-07T11:26:41.122Z,100783.55
2018-04-07T11:31:42.452Z,100781.91
2018-04-07T11:36:44.783Z,100778.27
2018-04-07T11:41:46.123Z,100767.45
2018-04-07T11:46:47.439Z,100760.82
2018-04-07T11:51:50.260Z,100755.07
2018-04-07T11:56:52.320Z,100751.45
2018-04-07T12:01:53.668Z,100747.66
2018-04-07T12:06:55.699Z,100741.95
2018-04-07T12:11:57.032Z,100732.67
2018-04-07T12:16:58.337Z,100725.64
2018-04-07T12:22:00.379Z,100725.95
2018-04-07T12:27:01.770Z,100722.66
2018-04-07T12:32:03.111Z,100717.46
2018-04-07T12:37:04.532Z,100723.31
2018-04-07T12:42:05.835Z,100717.12
2018-04-07T12:47:07.224Z,100714.72
2018-04-07T12:52:08.567Z,100710.48
2018-04-07T12:57:09.881Z,100704.64
2018-04-07T13:02:11.918Z,100697.41
2018-04-07T13:07:13.257Z,100692.75
2018-04-07T13:12:14.566Z,100691.61
2018-04-07T13:17:16.628Z,100694.81
2018-04-07T13:22:17.967Z,100685.39
2018-04-07T13:27:19.386Z,100677.17
2018-04-07T13:32:20.719Z,100678.98
2018-04-07T13:37:22.111Z,100674.84
2018-04-07T13:42:23.440Z,100668.01
2018-04-07T13:47:24.758Z,100660.70
2018-04-07T13:52:26.088Z,100649.41
2018-04-07T13:57:27.568Z,100643.98
2018-04-07T14:02:28.896Z,100638.74
2018-04-07T14:07:30.223Z,100643.62
2018-04-07T14:12:31.536Z,100622.27
2018-04-07T14:17:32.856Z,100613.17
2018-04-07T14:22:34.887Z,100619.91
2018-04-07T14:27:36.191Z,100618.20
2018-04-07T14:32:37.528Z,100608.47
2018-04-07T14:37:39.583Z,100611.77
2018-04-07T14:42:40.881Z,100609.30
2018-04-07T14:47:42.188Z,100608.79
2018-04-07T14:52:43.487Z,100604.09
2018-04-07T14:57:44.808Z,100588.30
2018-04-07T15:02:46.100Z,100589.95
2018-04-07T15:07:47.409Z,100586.42
2018-04-07T15:12:48.715Z,100589.91
2018-04-07T15:17:50.046Z,100574.27
2018-04-07T15:22:52.092Z,100575.73
2018-04-07T15:27:53.386Z,100574.62
2018-04-07T15:32:54.707Z,100565.78
2018-04-07T15:37:56.041Z,100571.23
2018-04-07T15:42:57.335Z,100566.69
2018-04-07T15:47:58.639Z,100567.34
2018-04-07T15:52:59.942Z,100560.53
2018-04-07T15:58:01.286Z,100552.45
2018-04-07T16:03:03.335Z,100549.19
2018-04-07T16:08:05.509Z,100546.13
2018-04-07T16:13:14.579Z,100535.08
2018-04-07T16:18:15.936Z,100529.53
2018-04-07T16:23:17.238Z,100524.02
2018-04-07T16:28:19.338Z,100525.36
2018-04-07T16:33:20.707Z,100510.06
2018-04-07T16:38:22.053Z,100514.33
2018-04-07T16:43:23.398Z,100512.91
2018-04-07T16:48:24.755Z,100512.36
2018-04-07T16:53:26.096Z,100513.91
2018-04-07T16:58:28.207Z,100504.64
2018-04-07T17:03:30.268Z,100505.59
2018-04-07T17:08:31.600Z,100506.42
2018-04-07T17:13:32.904Z,100505.50
2018-04-07T17:18:34.398Z,100506.84
2018-04-07T17:23:35.788Z,100508.64
2018-04-07T17:28:37.151Z,100510.53
2018-04-07T17:33:38.479Z,100509.98
2018-04-07T17:38:39.788Z,100516.55
2018-04-07T17:43:41.926Z,100512.38
2018-04-07T17:48:43.247Z,100507.53
2018-04-07T17:53:44.554Z,100512.53
2018-04-07T17:58:45.852Z,100512.96
2018-04-07T18:03:47.167Z,100508.40
2018-04-07T18:08:48.474Z,100507.71
2018-04-07T18:13:49.911Z,100501.06
2018-04-07T18:18:51.376Z,100512.43
2018-04-07T18:23:53.457Z,100517.47
2018-04-07T18:28:56.856Z,100523.66
2018-04-07T18:33:58.752Z,100520.83
2018-04-07T18:39:01.799Z,100540.30
2018-04-07T18:44:03.180Z,100533.89
2018-04-07T18:49:04.801Z,100536.75
2018-04-07T18:54:06.901Z,100538.39
2018-04-07T18:59:08.256Z,100547.77
2018-04-07T19:04:10.484Z,100553.02
2018-04-07T19:09:12.696Z,100558.87
2018-04-07T19:14:14.296Z,100559.25
2018-04-07T19:19:15.658Z,100563.22
2018-04-07T19:24:16.994Z,100568.00
2018-04-07T19:29:18.663Z,100569.14
2018-04-07T19:34:20.093Z,100568.50
2018-04-07T19:39:22.322Z,100567.00
2018-04-07T19:44:23.783Z,100566.14
2018-04-07T19:49:25.141Z,100576.08
2018-04-07T19:54:26.467Z,100574.72
2018-04-07T19:59:27.783Z,100575.03
2018-04-07T20:04:29.123Z,100575.96
2018-04-07T20:09:30.458Z,100576.23
2018-04-07T20:14:31.784Z,100573.70
2018-04-07T20:19:33.117Z,100570.14
2018-04-07T20:24:34.431Z,100574.17
2018-04-07T20:29:35.729Z,100579.73
2018-04-07T20:34:37.768Z,100577.98
2018-04-07T20:39:39.083Z,100570.20
2018-04-07T20:44:40.412Z,100574.64
2018-04-07T20:49:42.463Z,100568.84
2018-04-07T20:54:43.813Z,100573.30
2018-04-07T20:59:45.096Z,100568.87
2018-04-07T21:04:47.139Z,100569.66
2018-04-07T21:09:48.440Z,100573.45
2018-04-07T21:14:49.768Z,100563.84
2018-04-07T21:19:51.070Z,100556.75
2018-04-07T21:24:53.150Z,100559.17
2018-04-07T21:29:54.534Z,100552.77
2018-04-07T21:34:55.863Z,100550.69
2018-04-07T21:39:57.919Z,100545.37
2018-04-07T21:44:59.248Z,100550.04
2018-04-07T21:50:00.539Z,100548.58
2018-04-07T21:55:01.853Z,100549.52
2018-04-07T22:00:03.171Z,100546.86
2018-04-07T22:05:04.508Z,100547.09
2018-04-07T22:10:06.586Z,100546.57
2018-04-07T22:15:07.928Z,100545.37
2018-04-07T22:20:09.259Z,100544.87
2018-04-07T22:25:10.602Z,100540.08
2018-04-07T22:30:12.715Z,100533.55
2018-04-07T22:35:14.244Z,100533.88
2018-04-07T22:40:15.567Z,100532.64
2018-04-07T22:45:16.866Z,100519.52
2018-04-07T22:50:18.932Z,100537.20
2018-04-07T22:55:20.259Z,100538.36
2018-04-07T23:00:23.403Z,100536.08
2018-04-07T23:05:25.461Z,100539.16
2018-04-07T23:10:26.778Z,100534.24
2018-04-07T23:15:28.100Z,100531.56
2018-04-07T23:20:29.398Z,100532.84
2018-04-07T23:25:30.682Z,100538.06
2018-04-07T23:30:32.012Z,100529.80
2018-04-07T23:35:33.319Z,100530.03
2018-04-07T23:40:34.683Z,100527.65
2018-04-07T23:45:36.012Z,100521.55
2018-04-07T23:50:38.068Z,100520.94
2018-04-07T23:55:39.387Z,100523.29
